Time;durP1;ratioP1;P1;durP2;ratioP2;P2;SDS_P1;SDS_P2;PMS_P1;PMS_P2;Temp;Humidity;BMP_temperature;BMP_pressure;BME280_temperature;BME280_humidity;BME280_pressure;Samples;Min_cycle;Max_cycle;Signal;HPM_P1;HPM_P2
2024/02/09 05:06:29;;;;;;;0.30;0.30;;;11.20;99.90;;;;;;5426120;23;20553;-70
2024/02/09 05:08:58;;;;;;;0.30;0.20;;;11.30;99.90;;;;;;4900430;29;20563;-69
2024/02/09 05:11:28;;;;;;;0.30;0.20;;;11.40;99.90;;;;;;4900770;29;20776;-70
2024/02/09 05:13:55;;;;;;;0.30;0.20;;;11.40;99.90;;;;;;4900574;29;20422;-69
2024/02/09 05:16:21;;;;;;;0.30;0.30;;;11.50;99.90;;;;;;4889334;29;20444;-70
2024/02/09 05:18:47;;;;;;;0.30;0.20;;;11.60;99.90;;;;;;4882129;29;20478;-69
2024/02/09 05:21:13;;;;;;;0.30;0.20;;;11.70;99.90;;;;;;4881616;29;20423;-70
2024/02/09 05:23:39;;;;;;;0.30;0.30;;;11.80;99.90;;;;;;4881723;29;20495;-71
2024/02/09 05:26:10;;;;;;;0.30;0.30;;;11.80;99.90;;;;;;4879893;29;20458;-70
2024/02/09 05:28:38;;;;;;;0.30;0.30;;;11.80;99.90;;;;;;4881465;29;20201;-70
2024/02/09 05:31:05;;;;;;;0.30;0.30;;;11.90;99.90;;;;;;4881555;29;20386;-71
2024/02/09 05:33:35;;;;;;;0.30;0.30;;;11.90;99.90;;;;;;4881384;29;20425;-70
2024/02/09 05:36:01;;;;;;;0.30;0.30;;;11.90;99.90;;;;;;4880028;29;20517;-71
2024/02/09 05:38:27;;;;;;;0.30;0.30;;;11.90;99.90;;;;;;4880127;29;20432;-71
2024/02/09 05:40:53;;;;;;;0.30;0.20;;;12.00;99.90;;;;;;4881264;29;20426;-71
2024/02/09 05:43:19;;;;;;;0.30;0.30;;;12.00;99.90;;;;;;4881699;29;20385;-70
2024/02/09 05:45:48;;;;;;;0.30;0.30;;;12.00;99.90;;;;;;4880838;29;20443;-69
2024/02/09 05:48:14;;;;;;;0.30;0.20;;;12.10;99.90;;;;;;4881096;29;20579;-72
2024/02/09 05:50:40;;;;;;;0.30;0.30;;;12.10;99.90;;;;;;4879832;29;20427;-70
2024/02/09 05:53:07;;;;;;;0.30;0.30;;;12.10;99.90;;;;;;4881161;29;20506;-70
2024/02/09 05:55:34;;;;;;;0.30;0.30;;;12.10;99.90;;;;;;4880554;29;20191;-70
2024/02/09 05:58:00;;;;;;;0.30;0.30;;;12.10;99.90;;;;;;4880919;29;20471;-71
2024/02/09 06:00:26;;;;;;;0.30;0.30;;;12.20;99.90;;;;;;4880914;29;20426;-69
2024/02/09 06:02:52;;;;;;;0.30;0.30;;;12.20;99.90;;;;;;4881016;29;20450;-70
2024/02/09 06:05:19;;;;;;;0.30;0.30;;;12.20;99.90;;;;;;4879211;29;21978;-70
2024/02/09 06:07:45;;;;;;;0.30;0.30;;;12.20;99.90;;;;;;4880241;29;20438;-71
2024/02/09 06:10:11;;;;;;;0.30;0.20;;;12.20;99.90;;;;;;4880549;29;20897;-69
2024/02/09 06:12:37;;;;;;;0.30;0.30;;;12.20;99.90;;;;;;4880646;29;20649;-70
2024/02/09 06:15:05;;;;;;;0.30;0.30;;;12.20;99.90;;;;;;4877906;29;20645;-69
2024/02/09 06:17:31;;;;;;;0.30;0.20;;;12.20;99.90;;;;;;4879831;29;20802;-69
2024/02/09 06:19:57;;;;;;;0.30;0.30;;;12.20;99.90;;;;;;4880242;29;20431;-71
2024/02/09 06:22:22;;;;;;;0.30;0.30;;;12.20;99.90;;;;;;4879903;29;20947;-70
2024/02/09 06:24:52;;;;;;;0.30;0.30;;;12.20;99.90;;;;;;4879799;29;20420;-70
2024/02/09 06:27:19;;;;;;;0.30;0.20;;;12.20;99.90;;;;;;4878979;29;20211;-70
2024/02/09 06:29:45;;;;;;;0.30;0.30;;;12.20;99.90;;;;;;4880217;29;20441;-71
2024/02/09 06:32:11;;;;;;;0.30;0.30;;;12.20;99.90;;;;;;4880056;29;20413;-70
2024/02/09 06:34:36;;;;;;;0.30;0.30;;;12.20;99.90;;;;;;4878431;29;20551;-73
2024/02/09 06:37:12;;;;;;;0.30;0.20;;;12.30;99.90;;;;;;5105242;27;20593;-70
2024/02/09 06:39:38;;;;;;;0.30;0.30;;;12.20;99.90;;;;;;5089260;28;20809;-69
2024/02/09 06:42:03;;;;;;;0.30;0.20;;;12.30;99.90;;;;;;5090417;28;20514;-66
2024/02/09 06:44:30;;;;;;;0.30;0.30;;;12.30;99.90;;;;;;5089771;28;20178;-68
2024/02/09 06:46:56;;;;;;;0.30;0.30;;;12.30;99.90;;;;;;5088859;28;20603;-70
2024/02/09 06:49:28;;;;;;;0.30;0.30;;;12.30;99.90;;;;;;5090639;28;20409;-71
2024/02/09 06:51:53;;;;;;;0.30;0.30;;;12.20;99.90;;;;;;5090105;28;20528;-70
2024/02/09 06:54:19;;;;;;;0.30;0.20;;;12.20;99.90;;;;;;5089708;28;20406;-71
2024/02/09 06:56:44;;;;;;;0.30;0.30;;;12.30;99.90;;;;;;5088021;28;20251;-69
2024/02/09 06:59:10;;;;;;;0.30;0.30;;;12.30;99.90;;;;;;5089968;28;20229;-70
2024/02/09 07:01:38;;;;;;;0.30;0.20;;;12.30;99.90;;;;;;5089957;28;20225;-70
2024/02/09 07:04:06;;;;;;;0.30;0.30;;;12.30;99.90;;;;;;5089314;28;20171;-70
2024/02/09 07:06:31;;;;;;;0.37;0.37;;;12.30;99.90;;;;;;5089303;28;20537;-71
2024/02/09 07:08:58;;;;;;;0.30;0.30;;;12.30;99.90;;;;;;5087586;28;20460;-68
2024/02/09 07:11:24;;;;;;;0.30;0.20;;;12.30;99.90;;;;;;5089640;28;20179;-72
2024/02/09 07:13:50;;;;;;;0.30;0.20;;;12.30;99.90;;;;;;5089925;28;20425;-69
2024/02/09 07:16:17;;;;;;;0.30;0.30;;;12.30;99.90;;;;;;5087633;28;20461;-71
2024/02/09 07:18:43;;;;;;;0.30;0.30;;;12.40;99.90;;;;;;5089396;28;20205;-74
2024/02/09 07:21:09;;;;;;;0.30;0.30;;;12.40;99.90;;;;;;5089853;28;20865;-74
2024/02/09 07:23:38;;;;;;;0.30;0.30;;;12.40;99.90;;;;;;5089529;28;20171;-71
2024/02/09 07:26:08;;;;;;;0.30;0.30;;;12.40;99.90;;;;;;5088900;28;20947;-75
2024/02/09 07:28:34;;;;;;;0.30;0.30;;;12.40;99.90;;;;;;5089327;28;20414;-73
2024/02/09 07:31:00;;;;;;;0.30;0.20;;;12.40;99.90;;;;;;5088235;28;20436;-72
2024/02/09 07:33:26;;;;;;;0.30;0.30;;;12.40;99.90;;;;;;5089152;28;20423;-68
2024/02/09 07:35:51;;;;;;;0.30;0.30;;;12.40;99.90;;;;;;5087270;28;20439;-69
2024/02/09 07:38:17;;;;;;;0.30;0.30;;;12.40;99.90;;;;;;5089541;28;20173;-68
2024/02/09 07:40:43;;;;;;;0.30;0.30;;;12.40;99.90;;;;;;5089413;28;20174;-66
2024/02/09 07:43:09;;;;;;;0.30;0.30;;;12.30;99.90;;;;;;5089181;28;20164;-69
2024/02/09 07:45:35;;;;;;;0.30;0.30;;;12.30;99.90;;;;;;5090532;28;20431;-69
2024/02/09 07:48:01;;;;;;;0.30;0.30;;;12.30;99.90;;;;;;5077969;28;20179;-68
2024/02/09 07:50:27;;;;;;;0.30;0.30;;;12.30;99.90;;;;;;5075598;28;20815;-64
2024/02/09 07:52:53;;;;;;;0.30;0.20;;;12.30;99.90;;;;;;5075412;28;20419;-64
2024/02/09 07:55:21;;;;;;;0.30;0.30;;;12.30;99.90;;;;;;5049754;28;20601;-68
2024/02/09 07:57:50;;;;;;;4.73;1.00;;;12.30;99.90;;;;;;5070656;28;20422;-71
2024/02/09 08:00:18;;;;;;;0.30;0.30;;;12.30;99.90;;;;;;5073631;28;20422;-70
2024/02/09 08:02:47;;;;;;;0.30;0.30;;;12.30;99.90;;;;;;5075721;28;20387;-69
2024/02/09 08:05:24;;;;;;;0.30;0.30;;;12.30;99.90;;;;;;5072320;28;20516;-72
2024/02/09 08:07:50;;;;;;;0.50;0.50;;;12.30;99.90;;;;;;5074883;28;20798;-70
2024/02/09 08:10:16;;;;;;;0.30;0.30;;;12.40;99.90;;;;;;5079919;28;20423;-71
2024/02/09 08:12:44;;;;;;;0.30;0.30;;;12.40;99.90;;;;;;5074944;28;20417;-70
2024/02/09 08:15:11;;;;;;;0.30;0.30;;;12.50;99.90;;;;;;5074000;28;20436;-71
2024/02/09 08:17:38;;;;;;;0.30;0.20;;;12.50;99.90;;;;;;5075277;28;20421;-73
2024/02/09 08:20:09;;;;;;;0.30;0.20;;;12.50;99.90;;;;;;5074901;28;20771;-71
2024/02/09 08:22:35;;;;;;;0.30;0.20;;;12.60;99.90;;;;;;5074304;28;20415;-71
2024/02/09 08:25:01;;;;;;;0.30;0.30;;;12.60;99.90;;;;;;5073774;28;20419;-71
2024/02/09 08:27:27;;;;;;;0.30;0.20;;;12.70;99.90;;;;;;5073981;28;20176;-73
2024/02/09 08:29:56;;;;;;;0.30;0.30;;;12.80;99.90;;;;;;5074554;28;20458;-73
2024/02/09 08:32:27;;;;;;;0.40;0.40;;;12.80;99.90;;;;;;5074600;28;20411;-72
2024/02/09 08:34:53;;;;;;;0.30;0.30;;;12.80;99.90;;;;;;5073581;28;20419;-72
2024/02/09 08:37:24;;;;;;;0.30;0.30;;;12.90;99.90;;;;;;5073534;28;20497;-79
2024/02/09 08:39:50;;;;;;;0.30;0.30;;;13.00;99.90;;;;;;5073786;28;20780;-69
2024/02/09 08:42:16;;;;;;;0.40;0.40;;;13.10;99.90;;;;;;5074439;28;20407;-70
2024/02/09 08:44:41;;;;;;;0.30;0.30;;;13.20;99.90;;;;;;5074124;28;20384;-72
2024/02/09 08:47:08;;;;;;;0.30;0.30;;;13.30;99.90;;;;;;5073862;28;20418;-67
2024/02/09 08:49:34;;;;;;;0.30;0.30;;;13.40;99.90;;;;;;5074360;28;20178;-67
2024/02/09 08:52:00;;;;;;;0.30;0.30;;;13.50;99.90;;;;;;5074226;28;20412;-70
2024/02/09 08:54:26;;;;;;;0.30;0.30;;;13.50;99.90;;;;;;5073462;28;20177;-69
2024/02/09 08:56:51;;;;;;;0.30;0.30;;;13.70;99.90;;;;;;5072789;28;20469;-69
2024/02/09 08:59:18;;;;;;;0.30;0.30;;;13.90;99.90;;;;;;5072979;28;20178;-70
2024/02/09 09:01:43;;;;;;;0.30;0.30;;;14.00;99.90;;;;;;5073362;28;20220;-69
2024/02/09 09:04:10;;;;;;;0.30;0.30;;;14.20;99.90;;;;;;5072485;28;20511;-74
2024/02/09 09:06:37;;;;;;;0.30;0.30;;;14.30;99.90;;;;;;5071778;28;20736;-72
2024/02/09 09:09:03;;;;;;;0.30;0.30;;;14.40;99.90;;;;;;5073934;28;20489;-68
2024/02/09 09:11:29;;;;;;;0.30;0.30;;;14.50;99.90;;;;;;5073880;28;20415;-69
2024/02/09 09:13:55;;;;;;;0.30;0.20;;;14.50;99.90;;;;;;5073551;28;20451;-68
2024/02/09 09:16:21;;;;;;;0.30;0.20;;;14.50;99.90;;;;;;5071238;28;20981;-69
2024/02/09 09:18:49;;;;;;;0.30;0.30;;;14.50;99.90;;;;;;5072571;28;20568;-69
2024/02/09 09:21:15;;;;;;;0.30;0.30;;;14.60;99.90;;;;;;5075855;28;20423;-69
2024/02/09 09:23:40;;;;;;;0.30;0.20;;;14.70;99.90;;;;;;5074632;28;20413;-70
2024/02/09 09:26:06;;;;;;;0.30;0.30;;;14.80;99.90;;;;;;5072980;28;20215;-68
2024/02/09 09:28:33;;;;;;;0.30;0.20;;;15.10;99.90;;;;;;5073492;28;20175;-69
2024/02/09 09:30:59;;;;;;;0.30;0.30;;;15.30;99.90;;;;;;5073382;28;20386;-69
2024/02/09 09:33:25;;;;;;;0.30;0.20;;;15.50;99.90;;;;;;5073273;28;20501;-69
2024/02/09 09:35:55;;;;;;;0.30;0.30;;;15.70;99.90;;;;;;5069710;28;20894;-68
2024/02/09 09:38:21;;;;;;;0.30;0.30;;;15.90;99.90;;;;;;5075510;28;20169;-70
2024/02/09 09:40:54;;;;;;;0.30;0.30;;;16.20;99.90;;;;;;5073056;28;20406;-70
2024/02/09 09:43:21;;;;;;;0.30;0.20;;;16.50;99.90;;;;;;5073057;28;20403;-67
2024/02/09 09:45:56;;;;;;;0.60;0.60;;;16.70;99.90;;;;;;5072587;28;20401;-69
2024/02/09 09:48:23;;;;;;;0.30;0.30;;;16.80;99.90;;;;;;5072866;28;20452;-71
2024/02/09 09:50:51;;;;;;;0.30;0.30;;;16.70;99.90;;;;;;5072627;28;20408;-69
2024/02/09 09:53:21;;;;;;;0.30;0.30;;;16.50;99.90;;;;;;5072659;28;20424;-71
2024/02/09 09:55:47;;;;;;;0.30;0.20;;;16.50;99.90;;;;;;5071992;28;20470;-68
2024/02/09 09:58:14;;;;;;;0.30;0.30;;;16.40;99.90;;;;;;5072748;28;20453;-65
2024/02/09 10:00:40;;;;;;;0.30;0.30;;;16.30;99.90;;;;;;5072261;28;20894;-68
2024/02/09 10:03:07;;;;;;;0.30;0.30;;;16.20;99.90;;;;;;5072550;28;20393;-69
2024/02/09 10:05:35;;;;;;;0.30;0.20;;;16.20;99.90;;;;;;5071980;28;20487;-69
2024/02/09 10:08:01;;;;;;;0.30;0.30;;;16.10;99.90;;;;;;5072398;28;20472;-69
2024/02/09 10:10:28;;;;;;;0.40;0.40;;;16.10;99.90;;;;;;5072219;28;20488;-69
2024/02/09 10:13:22;;;;;;;0.30;0.30;;;16.10;99.90;;;;;;5071688;28;20411;-68
2024/02/09 10:15:51;;;;;;;0.30;0.20;;;16.00;99.90;;;;;;5068971;28;20611;-69
2024/02/09 10:18:17;;;;;;;0.30;0.27;;;16.00;99.90;;;;;;5075717;28;20442;-71
2024/02/09 10:20:46;;;;;;;0.30;0.30;;;16.00;99.90;;;;;;5072501;28;20461;-69
2024/02/09 10:23:13;;;;;;;0.30;0.30;;;16.00;99.90;;;;;;5071837;28;20721;-69
2024/02/09 10:25:41;;;;;;;0.30;0.30;;;16.00;99.90;;;;;;5072149;28;20410;-70
2024/02/09 10:28:08;;;;;;;0.30;0.30;;;16.00;99.90;;;;;;5072131;28;20752;-72
2024/02/09 10:30:35;;;;;;;0.30;0.20;;;16.00;99.90;;;;;;5072167;28;20418;-69
2024/02/09 10:33:01;;;;;;;0.30;0.30;;;15.90;99.90;;;;;;5072159;28;20396;-69
2024/02/09 10:35:28;;;;;;;0.30;0.30;;;15.90;99.90;;;;;;5071217;28;20434;-69
2024/02/09 10:38:00;;;;;;;0.30;0.27;;;15.90;99.90;;;;;;5069534;28;20497;-69
2024/02/09 10:40:26;;;;;;;0.30;0.30;;;15.80;99.90;;;;;;5072182;28;20399;-70
2024/02/09 10:42:52;;;;;;;0.30;0.30;;;15.80;99.90;;;;;;5072037;28;20909;-71
2024/02/09 10:45:19;;;;;;;0.40;0.40;;;15.80;99.90;;;;;;5071845;28;20405;-71
2024/02/09 10:47:53;;;;;;;0.30;0.20;;;15.70;99.90;;;;;;5072129;28;20480;-71
2024/02/09 10:50:20;;;;;;;0.30;0.20;;;15.70;99.90;;;;;;5070255;28;20408;-70
2024/02/09 10:52:49;;;;;;;0.47;0.43;;;15.70;99.90;;;;;;5070664;28;20416;-70
2024/02/09 10:55:21;;;;;;;0.30;0.30;;;15.70;99.90;;;;;;5071361;28;20454;-71
2024/02/09 10:57:53;;;;;;;0.30;0.30;;;15.70;99.90;;;;;;5054114;28;20964;-70
2024/02/09 11:00:20;;;;;;;0.30;0.30;;;15.70;99.90;;;;;;5071230;28;20390;-70
2024/02/09 11:02:46;;;;;;;0.30;0.30;;;15.80;99.90;;;;;;5072083;28;20391;-66
2024/02/09 11:05:15;;;;;;;0.30;0.20;;;15.70;99.90;;;;;;5071653;28;20389;-66
2024/02/09 11:07:47;;;;;;;0.30;0.30;;;15.70;99.90;;;;;;5071801;28;20742;-68
2024/02/09 11:10:16;;;;;;;0.30;0.20;;;15.80;99.90;;;;;;5071563;28;20422;-68
2024/02/09 11:12:41;;;;;;;0.30;0.30;;;15.70;99.90;;;;;;5069419;28;20907;-67
2024/02/09 11:15:14;;;;;;;0.30;0.30;;;15.70;99.90;;;;;;5071267;28;20422;-67
2024/02/09 11:17:47;;;;;;;0.30;0.30;;;15.70;99.90;;;;;;5069988;28;20266;-68
2024/02/09 11:20:14;;;;;;;0.30;0.30;;;15.80;99.90;;;;;;5071800;28;20755;-67
2024/02/09 11:23:00;;;;;;;0.30;0.30;;;15.80;99.90;;;;;;5073174;28;20439;-68
2024/02/09 11:25:30;;;;;;;0.30;0.30;;;15.90;99.90;;;;;;5073534;28;20415;-68
2024/02/09 11:27:57;;;;;;;0.30;0.20;;;15.90;99.90;;;;;;5075615;28;20386;-70
2024/02/09 11:30:22;;;;;;;0.30;0.20;;;15.90;99.90;;;;;;5075442;28;20397;-68
2024/02/09 11:32:49;;;;;;;0.30;0.30;;;16.00;99.90;;;;;;5075565;28;20411;-67
2024/02/09 11:35:15;;;;;;;0.30;0.30;;;16.00;99.90;;;;;;5075059;28;20209;-68
2024/02/09 11:37:50;;;;;;;0.80;0.50;;;16.10;99.90;;;;;;5074264;28;20386;-69
2024/02/09 11:40:16;;;;;;;0.40;0.40;;;16.10;99.90;;;;;;5074006;28;20406;-67
2024/02/09 11:42:44;;;;;;;0.30;0.20;;;16.20;99.90;;;;;;5075561;28;20403;-69
2024/02/09 11:45:10;;;;;;;0.30;0.30;;;16.20;99.90;;;;;;5074848;28;20380;-69
2024/02/09 11:47:38;;;;;;;0.30;0.20;;;16.30;99.90;;;;;;5075377;28;20443;-70
2024/02/09 11:50:21;;;;;;;0.30;0.20;;;16.30;99.90;;;;;;5075713;28;20532;-68
2024/02/09 11:52:46;;;;;;;0.30;0.30;;;16.20;99.90;;;;;;5075771;28;20482;-73
2024/02/09 11:55:12;;;;;;;0.30;0.30;;;16.20;99.90;;;;;;5075153;28;20599;-64
2024/02/09 11:57:38;;;;;;;0.50;0.50;;;16.10;99.90;;;;;;5075864;28;20523;-67
2024/02/09 12:00:05;;;;;;;0.30;0.20;;;16.20;99.90;;;;;;5075476;28;20165;-68
2024/02/09 12:02:32;;;;;;;0.30;0.20;;;16.10;99.90;;;;;;5075453;28;20400;-68
2024/02/09 12:04:58;;;;;;;0.30;0.27;;;16.10;99.90;;;;;;5075175;28;20396;-66
2024/02/09 12:07:25;;;;;;;0.30;0.30;;;16.00;99.90;;;;;;5074354;28;20405;-67
2024/02/09 12:09:51;;;;;;;0.30;0.30;;;15.90;99.90;;;;;;5074456;28;20556;-66
2024/02/09 12:12:21;;;;;;;0.30;0.20;;;15.80;99.90;;;;;;5074161;28;20384;-66
2024/02/09 12:14:47;;;;;;;0.30;0.20;;;15.70;99.90;;;;;;5075465;28;20166;-68
2024/02/09 12:17:12;;;;;;;0.50;0.40;;;15.60;99.90;;;;;;5075037;28;20975;-65
2024/02/09 12:19:39;;;;;;;0.30;0.30;;;15.50;99.90;;;;;;5075449;28;20584;-67
2024/02/09 12:22:08;;;;;;;0.30;0.30;;;15.40;99.90;;;;;;5075084;28;20181;-66
2024/02/09 12:24:37;;;;;;;0.40;0.40;;;15.40;99.90;;;;;;5075180;28;20497;-67
2024/02/09 12:27:14;;;;;;;0.30;0.30;;;15.30;99.90;;;;;;5074915;28;20694;-68
2024/02/09 12:29:42;;;;;;;0.30;0.30;;;15.30;99.90;;;;;;5075063;28;20496;-67
2024/02/09 12:32:12;;;;;;;0.30;0.30;;;15.30;99.90;;;;;;5075043;28;20426;-68
2024/02/09 12:34:48;;;;;;;0.30;0.30;;;15.30;99.90;;;;;;5074555;28;20411;-69
2024/02/09 12:37:16;;;;;;;0.30;0.30;;;15.30;99.90;;;;;;5074630;28;20468;-67
2024/02/09 12:39:54;;;;;;;0.30;0.30;;;15.20;99.90;;;;;;5074527;28;20380;-66
2024/02/09 12:42:32;;;;;;;0.30;0.27;;;15.20;99.90;;;;;;5074912;28;20374;-67
2024/02/09 12:44:59;;;;;;;0.30;0.30;;;15.20;99.90;;;;;;5074435;28;20403;-73
2024/02/09 12:47:26;;;;;;;0.47;0.40;;;15.10;99.90;;;;;;5073916;28;20383;-69
2024/02/09 12:49:52;;;;;;;0.30;0.30;;;15.00;99.90;;;;;;5074693;28;20813;-68
2024/02/09 12:52:19;;;;;;;0.30;0.30;;;15.00;99.90;;;;;;5074856;28;20548;-67
2024/02/09 12:54:46;;;;;;;0.70;0.70;;;15.00;99.90;;;;;;5074786;28;20403;-67
2024/02/09 12:57:12;;;;;;;0.30;0.30;;;15.00;99.90;;;;;;5073230;28;20586;-67
2024/02/09 12:59:39;;;;;;;0.30;0.20;;;14.90;99.90;;;;;;5074784;28;20491;-67
2024/02/09 13:02:07;;;;;;;0.30;0.20;;;14.90;99.90;;;;;;5074696;28;20252;-69
2024/02/09 13:04:33;;;;;;;0.30;0.20;;;14.90;99.90;;;;;;5074561;28;20470;-69
2024/02/09 13:07:06;;;;;;;0.73;0.60;;;14.90;99.90;;;;;;5074475;28;20407;-75
2024/02/09 13:09:35;;;;;;;0.30;0.30;;;14.80;99.90;;;;;;5074425;28;20504;-68
2024/02/09 13:12:01;;;;;;;0.30;0.30;;;14.80;99.90;;;;;;5074739;28;20434;-67
2024/02/09 13:14:27;;;;;;;0.30;0.30;;;14.70;99.90;;;;;;5073116;28;20427;-64
2024/02/09 13:16:53;;;;;;;0.30;0.30;;;14.50;99.90;;;;;;5076302;28;20440;-68
2024/02/09 13:19:19;;;;;;;0.30;0.30;;;14.40;99.90;;;;;;5075047;28;20239;-66
2024/02/09 13:21:45;;;;;;;0.30;0.30;;;14.30;99.90;;;;;;5075209;28;20248;-67
2024/02/09 13:24:13;;;;;;;0.30;0.20;;;14.20;99.90;;;;;;5075851;28;20447;-67
2024/02/09 13:26:40;;;;;;;0.30;0.27;;;14.00;99.90;;;;;;5074953;28;20485;-65
2024/02/09 13:29:07;;;;;;;0.30;0.30;;;13.90;99.90;;;;;;5077199;28;20507;-66
2024/02/09 13:31:34;;;;;;;0.30;0.30;;;13.80;99.90;;;;;;5077694;28;20403;-65
2024/02/09 13:34:00;;;;;;;0.30;0.30;;;13.70;99.90;;;;;;5075640;28;20989;-65
2024/02/09 13:36:26;;;;;;;0.30;0.30;;;13.60;99.90;;;;;;5074329;28;20534;-66
2024/02/09 13:38:52;;;;;;;0.30;0.30;;;13.50;99.90;;;;;;5073678;28;20486;-67
2024/02/09 13:41:18;;;;;;;0.30;0.30;;;13.50;99.90;;;;;;5073828;28;20169;-66
2024/02/09 13:43:44;;;;;;;0.30;0.30;;;13.40;99.90;;;;;;5075515;28;20756;-66
2024/02/09 13:46:10;;;;;;;0.37;0.37;;;13.40;99.90;;;;;;5073992;28;20426;-67
2024/02/09 13:48:35;;;;;;;0.30;0.30;;;13.40;99.90;;;;;;5073734;28;20172;-65
2024/02/09 13:51:01;;;;;;;0.30;0.30;;;13.40;99.90;;;;;;5076186;28;20256;-66
2024/02/09 13:53:27;;;;;;;0.30;0.30;;;13.40;99.90;;;;;;5075143;28;20523;-65
2024/02/09 13:55:53;;;;;;;0.30;0.30;;;13.40;99.90;;;;;;5074093;28;20458;-66
2024/02/09 13:58:19;;;;;;;0.30;0.30;;;13.50;99.90;;;;;;5073041;28;20473;-65
2024/02/09 14:00:45;;;;;;;0.33;0.33;;;13.50;99.90;;;;;;5074617;28;20165;-65
2024/02/09 14:03:11;;;;;;;0.30;0.30;;;13.50;99.90;;;;;;5074071;28;20384;-65
2024/02/09 14:05:37;;;;;;;0.30;0.30;;;13.50;99.90;;;;;;5073734;28;20279;-65
2024/02/09 14:08:04;;;;;;;0.30;0.30;;;13.60;99.90;;;;;;5073952;28;20169;-66
2024/02/09 14:10:35;;;;;;;0.30;0.30;;;13.60;99.90;;;;;;5072596;28;20572;-65
2024/02/09 14:13:00;;;;;;;0.30;0.20;;;13.70;99.90;;;;;;5074239;28;20406;-68
2024/02/09 14:15:26;;;;;;;1.07;0.93;;;13.60;99.90;;;;;;5072359;28;20463;-65
2024/02/09 14:17:52;;;;;;;0.40;0.40;;;13.60;99.90;;;;;;5074029;28;20247;-66
2024/02/09 14:20:20;;;;;;;0.30;0.30;;;13.60;99.90;;;;;;5073679;28;20185;-65
2024/02/09 14:22:46;;;;;;;0.30;0.30;;;13.60;99.90;;;;;;5073506;28;20399;-66
2024/02/09 14:25:12;;;;;;;0.30;0.30;;;13.50;99.90;;;;;;5073366;28;20864;-65
2024/02/09 14:27:38;;;;;;;0.30;0.30;;;13.40;99.90;;;;;;5073937;28;20157;-67
2024/02/09 14:30:04;;;;;;;0.30;0.30;;;13.40;99.90;;;;;;5073652;28;20438;-66
2024/02/09 14:32:32;;;;;;;0.30;0.30;;;13.30;99.90;;;;;;5073531;28;20190;-66
2024/02/09 14:34:57;;;;;;;0.30;0.30;;;13.30;99.90;;;;;;5073320;28;20413;-65
2024/02/09 14:37:23;;;;;;;0.30;0.30;;;13.20;99.90;;;;;;5074020;28;20431;-66
2024/02/09 14:39:49;;;;;;;0.30;0.30;;;13.20;99.90;;;;;;5073680;28;20214;-66
2024/02/09 14:42:14;;;;;;;0.30;0.30;;;13.20;99.90;;;;;;5074003;28;20173;-67
2024/02/09 14:44:47;;;;;;;0.30;0.30;;;13.10;99.90;;;;;;5072212;28;20271;-66
2024/02/09 14:47:16;;;;;;;0.30;0.30;;;13.10;99.90;;;;;;5072227;28;20188;-67
2024/02/09 14:49:45;;;;;;;0.30;0.30;;;13.10;99.90;;;;;;5073355;28;20777;-65
2024/02/09 14:52:11;;;;;;;0.30;0.30;;;13.10;99.90;;;;;;5073363;28;20765;-65
2024/02/09 14:54:40;;;;;;;0.30;0.30;;;13.10;99.90;;;;;;5072963;28;20429;-65
2024/02/09 14:57:06;;;;;;;0.30;0.27;;;13.20;99.90;;;;;;5074689;28;20454;-65
2024/02/09 14:59:32;;;;;;;0.30;0.30;;;13.10;99.90;;;;;;5076969;28;20431;-66
2024/02/09 15:01:57;;;;;;;0.30;0.30;;;13.10;99.90;;;;;;5078169;28;20959;-66
2024/02/09 15:04:23;;;;;;;0.30;0.30;;;13.20;99.90;;;;;;5077957;28;20403;-66
2024/02/09 15:06:49;;;;;;;0.30;0.30;;;13.30;99.90;;;;;;5078271;28;20185;-67
2024/02/09 15:09:15;;;;;;;1.63;1.63;;;13.30;99.90;;;;;;5078148;28;20749;-66
2024/02/09 15:11:41;;;;;;;0.30;0.30;;;13.30;99.90;;;;;;5077663;28;20501;-65
2024/02/09 15:14:07;;;;;;;0.30;0.30;;;13.30;99.90;;;;;;5077046;28;20650;-65
2024/02/09 15:16:33;;;;;;;0.30;0.30;;;13.40;99.90;;;;;;5075110;28;20204;-66
2024/02/09 15:18:59;;;;;;;0.30;0.30;;;13.40;99.90;;;;;;5076731;28;20888;-66
2024/02/09 15:21:24;;;;;;;0.30;0.20;;;13.40;99.90;;;;;;5076698;28;20518;-67
2024/02/09 15:23:50;;;;;;;0.30;0.20;;;13.40;99.90;;;;;;5076520;28;20173;-66
2024/02/09 15:26:17;;;;;;;0.30;0.30;;;13.40;99.90;;;;;;5076182;28;20189;-66
2024/02/09 15:28:44;;;;;;;0.30;0.30;;;13.40;99.90;;;;;;5076213;28;20176;-66
2024/02/09 15:31:10;;;;;;;0.30;0.30;;;13.40;99.90;;;;;;5076445;28;20399;-67
2024/02/09 15:33:38;;;;;;;0.33;0.33;;;13.30;99.90;;;;;;5076270;28;20415;-67
2024/02/09 15:36:04;;;;;;;0.30;0.30;;;13.30;99.90;;;;;;5075359;28;20552;-66
2024/02/09 15:38:32;;;;;;;0.30;0.23;;;13.20;99.90;;;;;;5074541;28;20417;-67
2024/02/09 15:41:02;;;;;;;0.50;0.50;;;13.10;99.90;;;;;;5075875;28;20407;-67
2024/02/09 15:43:31;;;;;;;0.30;0.30;;;13.00;99.90;;;;;;5075815;28;20372;-72
2024/02/09 15:45:57;;;;;;;0.30;0.30;;;12.90;99.90;;;;;;5075270;28;20487;-70
2024/02/09 15:48:24;;;;;;;0.30;0.30;;;12.80;99.90;;;;;;5076020;28;20414;-69
2024/02/09 15:50:51;;;;;;;0.30;0.30;;;12.60;99.90;;;;;;5075920;28;20413;-70
2024/02/09 15:53:19;;;;;;;0.30;0.30;;;12.50;99.90;;;;;;5074414;28;20456;-69
2024/02/09 15:55:48;;;;;;;0.30;0.30;;;12.40;99.90;;;;;;5075095;28;20966;-73
2024/02/09 15:58:20;;;;;;;0.30;0.30;;;12.30;99.90;;;;;;5075993;28;20492;-73
2024/02/09 16:00:48;;;;;;;0.30;0.30;;;12.20;99.90;;;;;;5075420;28;20410;-75
2024/02/09 16:03:13;;;;;;;0.30;0.30;;;12.10;99.90;;;;;;5076014;28;20392;-74
2024/02/09 16:05:42;;;;;;;1.60;1.50;;;12.10;99.90;;;;;;5075202;28;20401;-72
2024/02/09 16:08:09;;;;;;;0.37;0.37;;;12.00;99.90;;;;;;5075046;28;20232;-72
2024/02/09 16:10:35;;;;;;;0.30;0.30;;;11.90;99.90;;;;;;5075358;28;20760;-71
2024/02/09 16:13:01;;;;;;;0.43;0.43;;;11.80;99.90;;;;;;5075664;28;20396;-72
2024/02/09 16:15:29;;;;;;;0.30;0.30;;;11.70;99.90;;;;;;5074998;28;20195;-72
2024/02/09 16:17:58;;;;;;;0.30;0.30;;;11.60;99.90;;;;;;5075478;28;20402;-71
2024/02/09 16:20:23;;;;;;;0.30;0.30;;;11.60;99.90;;;;;;5075408;28;20403;-69
2024/02/09 16:22:50;;;;;;;0.30;0.27;;;11.50;99.90;;;;;;5075767;28;20710;-71
2024/02/09 16:25:18;;;;;;;0.30;0.30;;;11.40;99.90;;;;;;5074601;28;20171;-71
2024/02/09 16:27:47;;;;;;;0.30;0.30;;;11.30;99.90;;;;;;5075278;28;20415;-69
2024/02/09 16:30:13;;;;;;;0.30;0.30;;;11.30;99.90;;;;;;5075225;28;20467;-69
2024/02/09 16:32:39;;;;;;;0.30;0.30;;;11.20;99.90;;;;;;5075227;28;20413;-72
2024/02/09 16:35:08;;;;;;;0.30;0.30;;;11.10;99.90;;;;;;5073289;28;20504;-70
2024/02/09 16:37:34;;;;;;;0.30;0.30;;;11.10;99.90;;;;;;5073469;28;20578;-69
2024/02/09 16:40:02;;;;;;;0.37;0.37;;;11.00;99.90;;;;;;5073684;28;20409;-69
2024/02/09 16:42:27;;;;;;;0.57;0.57;;;11.00;99.90;;;;;;5073708;28;20418;-68
2024/02/09 16:44:53;;;;;;;0.30;0.30;;;11.00;99.90;;;;;;5074631;28;20422;-67
2024/02/09 16:47:22;;;;;;;0.30;0.30;;;10.90;99.90;;;;;;5074740;28;20556;-70
2024/02/09 16:49:48;;;;;;;0.30;0.30;;;10.90;99.90;;;;;;5073385;28;20732;-71
2024/02/09 16:52:14;;;;;;;0.30;0.30;;;10.90;99.90;;;;;;5074535;28;20420;-68
2024/02/09 16:54:39;;;;;;;0.83;0.50;;;10.90;99.90;;;;;;5074289;28;20416;-67
2024/02/09 16:57:07;;;;;;;0.40;0.40;;;10.90;99.90;;;;;;5074530;28;20305;-67
2024/02/09 16:59:34;;;;;;;0.30;0.30;;;10.90;99.90;;;;;;5074565;28;20159;-66
2024/02/09 17:02:00;;;;;;;0.30;0.30;;;10.80;99.90;;;;;;5074578;28;20398;-67
2024/02/09 17:04:26;;;;;;;0.30;0.30;;;10.80;99.90;;;;;;5072835;28;20418;-66
2024/02/09 17:06:53;;;;;;;0.30;0.30;;;10.90;99.90;;;;;;5073226;28;20429;-67
2024/02/09 17:09:22;;;;;;;0.30;0.30;;;10.80;99.90;;;;;;5074650;28;20408;-68
2024/02/09 17:11:51;;;;;;;0.30;0.30;;;10.80;99.90;;;;;;5074270;28;20466;-66
2024/02/09 17:14:17;;;;;;;0.30;0.30;;;10.90;99.90;;;;;;5074024;28;20398;-64
2024/02/09 17:16:44;;;;;;;0.30;0.30;;;10.90;99.90;;;;;;5073537;28;20448;-66
2024/02/09 17:19:12;;;;;;;0.33;0.33;;;10.90;99.90;;;;;;5073598;28;20409;-67
2024/02/09 17:21:39;;;;;;;0.30;0.30;;;10.90;99.90;;;;;;5073824;28;20410;-66
2024/02/09 17:24:05;;;;;;;0.30;0.30;;;10.90;99.90;;;;;;5073945;28;20401;-66
2024/02/09 17:26:31;;;;;;;0.30;0.30;;;10.90;99.90;;;;;;5073445;28;20433;-66
2024/02/09 17:28:57;;;;;;;0.70;0.70;;;10.90;99.90;;;;;;5074077;28;20812;-67
2024/02/09 17:31:25;;;;;;;0.30;0.30;;;10.90;99.90;;;;;;5073782;28;20180;-67
2024/02/09 17:33:50;;;;;;;0.53;0.53;;;10.90;99.90;;;;;;5074049;28;20806;-69
2024/02/09 17:36:16;;;;;;;0.30;0.30;;;10.90;99.90;;;;;;5073084;28;20548;-68
2024/02/09 17:38:43;;;;;;;0.30;0.30;;;10.90;99.90;;;;;;5073850;28;20410;-68
2024/02/09 17:41:10;;;;;;;0.30;0.20;;;10.90;99.90;;;;;;5074154;28;20621;-67
2024/02/09 17:43:40;;;;;;;0.30;0.30;;;10.90;99.90;;;;;;5073861;28;20410;-66
2024/02/09 17:46:06;;;;;;;0.37;0.37;;;11.00;99.90;;;;;;5073247;28;20425;-65
2024/02/09 17:48:34;;;;;;;0.70;0.70;;;10.90;99.90;;;;;;5073850;28;20413;-67
2024/02/09 17:51:05;;;;;;;0.30;0.30;;;10.90;99.90;;;;;;5073655;28;20417;-67
2024/02/09 17:53:32;;;;;;;0.30;0.30;;;10.90;99.90;;;;;;5073648;28;20402;-63